sensor_id;sensor_type;location;lat;lon;timestamp;P1;durP1;ratioP1;P2;durP2;ratioP2
11298;SDS011;5705;49.006;12.100;2022-07-29T00:01:39;1.80;;;1.70;;
11298;SDS011;5705;49.006;12.100;2022-07-29T00:04:08;1.77;;;1.60;;
11298;SDS011;5705;49.006;12.100;2022-07-29T00:06:36;2.00;;;1.90;;
11298;SDS011;5705;49.006;12.100;2022-07-29T00:09:04;2.40;;;1.70;;
11298;SDS011;5705;49.006;12.100;2022-07-29T00:11:32;1.80;;;1.70;;
11298;SDS011;5705;49.006;12.100;2022-07-29T00:13:59;1.87;;;1.77;;
11298;SDS011;5705;49.006;12.100;2022-07-29T00:16:27;1.80;;;1.70;;
11298;SDS011;5705;49.006;12.100;2022-07-29T00:18:57;3.60;;;1.60;;
11298;SDS011;5705;49.006;12.100;2022-07-29T00:21:27;1.83;;;1.70;;
11298;SDS011;5705;49.006;12.100;2022-07-29T00:23:55;1.90;;;1.80;;
11298;SDS011;5705;49.006;12.100;2022-07-29T00:26:23;1.80;;;1.70;;
11298;SDS011;5705;49.006;12.100;2022-07-29T00:28:51;2.80;;;2.10;;
11298;SDS011;5705;49.006;12.100;2022-07-29T00:31:39;1.73;;;1.63;;
11298;SDS011;5705;49.006;12.100;2022-07-29T00:34:08;1.80;;;1.70;;
11298;SDS011;5705;49.006;12.100;2022-07-29T00:36:55;3.47;;;1.90;;
11298;SDS011;5705;49.006;12.100;2022-07-29T00:39:22;6.87;;;1.80;;
11298;SDS011;5705;49.006;12.100;2022-07-29T00:41:52;2.50;;;1.63;;
11298;SDS011;5705;49.006;12.100;2022-07-29T00:44:20;2.07;;;1.70;;
11298;SDS011;5705;49.006;12.100;2022-07-29T00:46:48;1.97;;;1.87;;
11298;SDS011;5705;49.006;12.100;2022-07-29T00:49:17;2.40;;;2.20;;
11298;SDS011;5705;49.006;12.100;2022-07-29T00:51:45;2.47;;;2.27;;
11298;SDS011;5705;49.006;12.100;2022-07-29T00:54:12;2.00;;;1.80;;
11298;SDS011;5705;49.006;12.100;2022-07-29T00:56:41;2.73;;;1.93;;
11298;SDS011;5705;49.006;12.100;2022-07-29T00:59:08;1.93;;;1.73;;
11298;SDS011;5705;49.006;12.100;2022-07-29T01:01:36;2.00;;;1.67;;
11298;SDS011;5705;49.006;12.100;2022-07-29T01:04:04;1.93;;;1.83;;
11298;SDS011;5705;49.006;12.100;2022-07-29T01:06:34;1.93;;;1.77;;
11298;SDS011;5705;49.006;12.100;2022-07-29T01:09:02;1.97;;;1.87;;
11298;SDS011;5705;49.006;12.100;2022-07-29T01:11:29;2.17;;;1.87;;
11298;SDS011;5705;49.006;12.100;2022-07-29T01:13:57;6.23;;;1.83;;
11298;SDS011;5705;49.006;12.100;2022-07-29T01:16:26;1.70;;;1.60;;
11298;SDS011;5705;49.006;12.100;2022-07-29T01:19:00;2.10;;;1.90;;
11298;SDS011;5705;49.006;12.100;2022-07-29T01:21:42;2.20;;;1.97;;
11298;SDS011;5705;49.006;12.100;2022-07-29T01:24:23;1.80;;;1.70;;
11298;SDS011;5705;49.006;12.100;2022-07-29T01:27:18;2.33;;;2.13;;
11298;SDS011;5705;49.006;12.100;2022-07-29T01:29:57;6.73;;;2.13;;
11298;SDS011;5705;49.006;12.100;2022-07-29T01:32:26;2.07;;;1.97;;
11298;SDS011;5705;49.006;12.100;2022-07-29T01:34:56;2.10;;;1.90;;
11298;SDS011;5705;49.006;12.100;2022-07-29T01:37:27;2.67;;;2.10;;
11298;SDS011;5705;49.006;12.100;2022-07-29T01:39:57;2.80;;;2.03;;
11298;SDS011;5705;49.006;12.100;2022-07-29T01:42:27;2.13;;;1.90;;
11298;SDS011;5705;49.006;12.100;2022-07-29T01:45:00;1.97;;;1.80;;
11298;SDS011;5705;49.006;12.100;2022-07-29T01:47:31;2.80;;;2.17;;
11298;SDS011;5705;49.006;12.100;2022-07-29T01:50:03;2.20;;;1.90;;
11298;SDS011;5705;49.006;12.100;2022-07-29T01:52:36;2.60;;;2.37;;
11298;SDS011;5705;49.006;12.100;2022-07-29T01:55:07;2.83;;;2.53;;
11298;SDS011;5705;49.006;12.100;2022-07-29T01:57:38;3.07;;;2.87;;
11298;SDS011;5705;49.006;12.100;2022-07-29T02:00:10;5.00;;;4.50;;
11298;SDS011;5705;49.006;12.100;2022-07-29T02:02:39;5.93;;;5.43;;
11298;SDS011;5705;49.006;12.100;2022-07-29T02:05:09;4.40;;;3.17;;
11298;SDS011;5705;49.006;12.100;2022-07-29T02:07:38;4.23;;;3.80;;
11298;SDS011;5705;49.006;12.100;2022-07-29T02:10:08;4.37;;;4.07;;
11298;SDS011;5705;49.006;12.100;2022-07-29T02:12:37;4.80;;;2.90;;
11298;SDS011;5705;49.006;12.100;2022-07-29T02:15:05;2.97;;;2.77;;
11298;SDS011;5705;49.006;12.100;2022-07-29T02:17:39;7.67;;;3.73;;
11298;SDS011;5705;49.006;12.100;2022-07-29T02:20:09;2.20;;;2.10;;
11298;SDS011;5705;49.006;12.100;2022-07-29T02:22:37;2.90;;;2.70;;
11298;SDS011;5705;49.006;12.100;2022-07-29T02:25:07;3.90;;;3.60;;
11298;SDS011;5705;49.006;12.100;2022-07-29T02:27:39;5.07;;;4.63;;
11298;SDS011;5705;49.006;12.100;2022-07-29T02:30:08;4.80;;;4.40;;
11298;SDS011;5705;49.006;12.100;2022-07-29T02:32:39;4.63;;;4.30;;
11298;SDS011;5705;49.006;12.100;2022-07-29T02:35:08;4.10;;;3.57;;
11298;SDS011;5705;49.006;12.100;2022-07-29T02:37:36;3.00;;;2.80;;
11298;SDS011;5705;49.006;12.100;2022-07-29T02:40:05;4.00;;;3.57;;
11298;SDS011;5705;49.006;12.100;2022-07-29T02:42:36;2.90;;;2.70;;
11298;SDS011;5705;49.006;12.100;2022-07-29T02:45:06;2.20;;;2.00;;
11298;SDS011;5705;49.006;12.100;2022-07-29T02:47:34;3.67;;;3.37;;
11298;SDS011;5705;49.006;12.100;2022-07-29T02:50:09;6.03;;;5.47;;
11298;SDS011;5705;49.006;12.100;2022-07-29T02:52:40;6.73;;;6.20;;
11298;SDS011;5705;49.006;12.100;2022-07-29T02:55:11;10.00;;;9.00;;
11298;SDS011;5705;49.006;12.100;2022-07-29T02:57:42;6.53;;;5.93;;
11298;SDS011;5705;49.006;12.100;2022-07-29T03:00:20;5.90;;;5.33;;
11298;SDS011;5705;49.006;12.100;2022-07-29T03:02:50;11.87;;;10.63;;
11298;SDS011;5705;49.006;12.100;2022-07-29T03:05:21;12.83;;;11.53;;
11298;SDS011;5705;49.006;12.100;2022-07-29T03:07:51;14.03;;;12.67;;
11298;SDS011;5705;49.006;12.100;2022-07-29T03:10:22;10.77;;;9.77;;
11298;SDS011;5705;49.006;12.100;2022-07-29T03:12:50;7.93;;;7.17;;
11298;SDS011;5705;49.006;12.100;2022-07-29T03:15:19;5.13;;;4.67;;
11298;SDS011;5705;49.006;12.100;2022-07-29T03:17:49;4.50;;;4.10;;
11298;SDS011;5705;49.006;12.100;2022-07-29T03:20:18;4.70;;;4.40;;
11298;SDS011;5705;49.006;12.100;2022-07-29T03:22:47;5.90;;;5.40;;
11298;SDS011;5705;49.006;12.100;2022-07-29T03:25:16;4.37;;;3.13;;
11298;SDS011;5705;49.006;12.100;2022-07-29T03:27:44;2.33;;;2.10;;
11298;SDS011;5705;49.006;12.100;2022-07-29T03:30:12;2.70;;;1.93;;
11298;SDS011;5705;49.006;12.100;2022-07-29T03:32:47;2.70;;;2.30;;
11298;SDS011;5705;49.006;12.100;2022-07-29T03:35:17;5.40;;;5.00;;
11298;SDS011;5705;49.006;12.100;2022-07-29T03:37:45;5.00;;;4.60;;
11298;SDS011;5705;49.006;12.100;2022-07-29T03:40:16;6.50;;;5.90;;
11298;SDS011;5705;49.006;12.100;2022-07-29T03:42:47;7.10;;;6.40;;
11298;SDS011;5705;49.006;12.100;2022-07-29T03:45:17;6.93;;;6.27;;
11298;SDS011;5705;49.006;12.100;2022-07-29T03:47:47;6.23;;;5.60;;
11298;SDS011;5705;49.006;12.100;2022-07-29T03:50:22;7.53;;;4.30;;
11298;SDS011;5705;49.006;12.100;2022-07-29T03:52:50;6.03;;;2.87;;
11298;SDS011;5705;49.006;12.100;2022-07-29T03:55:19;2.93;;;2.73;;
11298;SDS011;5705;49.006;12.100;2022-07-29T03:57:47;2.20;;;2.10;;
11298;SDS011;5705;49.006;12.100;2022-07-29T04:00:16;2.07;;;1.93;;
11298;SDS011;5705;49.006;12.100;2022-07-29T04:02:44;3.50;;;2.53;;
11298;SDS011;5705;49.006;12.100;2022-07-29T04:05:15;4.20;;;3.60;;
11298;SDS011;5705;49.006;12.100;2022-07-29T04:07:43;5.73;;;4.00;;
11298;SDS011;5705;49.006;12.100;2022-07-29T04:10:11;2.77;;;2.50;;
11298;SDS011;5705;49.006;12.100;2022-07-29T04:12:41;2.60;;;2.30;;
11298;SDS011;5705;49.006;12.100;2022-07-29T04:15:09;4.03;;;2.10;;
11298;SDS011;5705;49.006;12.100;2022-07-29T04:17:37;2.70;;;2.23;;
11298;SDS011;5705;49.006;12.100;2022-07-29T04:20:05;3.03;;;2.37;;
11298;SDS011;5705;49.006;12.100;2022-07-29T04:22:34;3.43;;;2.00;;
11298;SDS011;5705;49.006;12.100;2022-07-29T04:25:01;1.90;;;1.80;;
11298;SDS011;5705;49.006;12.100;2022-07-29T04:27:29;2.47;;;2.27;;
11298;SDS011;5705;49.006;12.100;2022-07-29T04:29:59;2.17;;;1.93;;
11298;SDS011;5705;49.006;12.100;2022-07-29T04:32:26;2.20;;;2.07;;
11298;SDS011;5705;49.006;12.100;2022-07-29T04:34:54;2.03;;;1.93;;
11298;SDS011;5705;49.006;12.100;2022-07-29T04:37:21;2.50;;;2.30;;
11298;SDS011;5705;49.006;12.100;2022-07-29T04:39:49;2.40;;;2.20;;
11298;SDS011;5705;49.006;12.100;2022-07-29T04:42:17;3.33;;;3.00;;
11298;SDS011;5705;49.006;12.100;2022-07-29T04:44:53;2.97;;;2.23;;
11298;SDS011;5705;49.006;12.100;2022-07-29T04:47:22;4.37;;;2.30;;
11298;SDS011;5705;49.006;12.100;2022-07-29T04:49:50;2.80;;;1.93;;
11298;SDS011;5705;49.006;12.100;2022-07-29T04:52:17;3.23;;;2.10;;
11298;SDS011;5705;49.006;12.100;2022-07-29T04:54:45;2.90;;;2.57;;
11298;SDS011;5705;49.006;12.100;2022-07-29T04:57:13;2.80;;;2.60;;
11298;SDS011;5705;49.006;12.100;2022-07-29T04:59:40;2.10;;;2.00;;
11298;SDS011;5705;49.006;12.100;2022-07-29T05:02:08;2.50;;;2.10;;
11298;SDS011;5705;49.006;12.100;2022-07-29T05:04:37;2.30;;;2.07;;
11298;SDS011;5705;49.006;12.100;2022-07-29T05:07:05;5.00;;;2.10;;
11298;SDS011;5705;49.006;12.100;2022-07-29T05:09:33;4.00;;;2.33;;
11298;SDS011;5705;49.006;12.100;2022-07-29T05:12:00;2.00;;;1.90;;
11298;SDS011;5705;49.006;12.100;2022-07-29T05:14:28;2.47;;;2.10;;
11298;SDS011;5705;49.006;12.100;2022-07-29T05:16:56;3.00;;;2.10;;
11298;SDS011;5705;49.006;12.100;2022-07-29T05:19:23;2.57;;;2.37;;
11298;SDS011;5705;49.006;12.100;2022-07-29T05:21:52;3.63;;;2.03;;
11298;SDS011;5705;49.006;12.100;2022-07-29T05:24:20;3.80;;;2.20;;
11298;SDS011;5705;49.006;12.100;2022-07-29T05:26:48;2.87;;;1.70;;
11298;SDS011;5705;49.006;12.100;2022-07-29T05:29:15;3.23;;;1.87;;
11298;SDS011;5705;49.006;12.100;2022-07-29T05:32:03;1.80;;;1.70;;
11298;SDS011;5705;49.006;12.100;2022-07-29T05:34:31;3.10;;;2.10;;
11298;SDS011;5705;49.006;12.100;2022-07-29T05:37:01;2.67;;;1.93;;
11298;SDS011;5705;49.006;12.100;2022-07-29T05:39:28;4.03;;;2.90;;
11298;SDS011;5705;49.006;12.100;2022-07-29T05:42:14;2.80;;;2.27;;
11298;SDS011;5705;49.006;12.100;2022-07-29T05:44:42;3.30;;;1.90;;
11298;SDS011;5705;49.006;12.100;2022-07-29T05:47:09;2.40;;;2.30;;
11298;SDS011;5705;49.006;12.100;2022-07-29T05:49:37;3.90;;;2.50;;
11298;SDS011;5705;49.006;12.100;2022-07-29T05:52:06;3.17;;;2.00;;
11298;SDS011;5705;49.006;12.100;2022-07-29T05:54:35;3.93;;;2.60;;
11298;SDS011;5705;49.006;12.100;2022-07-29T05:57:03;2.83;;;1.97;;
11298;SDS011;5705;49.006;12.100;2022-07-29T05:59:31;2.17;;;1.63;;
11298;SDS011;5705;49.006;12.100;2022-07-29T06:02:02;2.53;;;1.90;;
11298;SDS011;5705;49.006;12.100;2022-07-29T06:04:31;3.87;;;2.60;;
11298;SDS011;5705;49.006;12.100;2022-07-29T06:06:59;2.93;;;2.30;;
11298;SDS011;5705;49.006;12.100;2022-07-29T06:09:29;2.60;;;2.33;;
11298;SDS011;5705;49.006;12.100;2022-07-29T06:11:57;3.80;;;2.57;;
11298;SDS011;5705;49.006;12.100;2022-07-29T06:14:25;2.03;;;1.90;;
11298;SDS011;5705;49.006;12.100;2022-07-29T06:16:54;4.63;;;2.50;;
11298;SDS011;5705;49.006;12.100;2022-07-29T06:19:22;2.23;;;1.90;;
11298;SDS011;5705;49.006;12.100;2022-07-29T06:21:50;2.03;;;1.93;;
11298;SDS011;5705;49.006;12.100;2022-07-29T06:24:18;2.43;;;2.23;;
11298;SDS011;5705;49.006;12.100;2022-07-29T06:26:47;2.63;;;1.80;;
11298;SDS011;5705;49.006;12.100;2022-07-29T06:29:15;1.93;;;1.70;;
11298;SDS011;5705;49.006;12.100;2022-07-29T06:31:43;2.63;;;1.80;;
11298;SDS011;5705;49.006;12.100;2022-07-29T06:34:10;1.83;;;1.60;;
11298;SDS011;5705;49.006;12.100;2022-07-29T06:36:39;2.57;;;2.07;;
11298;SDS011;5705;49.006;12.100;2022-07-29T06:39:07;3.40;;;2.00;;
11298;SDS011;5705;49.006;12.100;2022-07-29T06:41:37;2.47;;;2.00;;
11298;SDS011;5705;49.006;12.100;2022-07-29T06:44:06;2.80;;;2.57;;
11298;SDS011;5705;49.006;12.100;2022-07-29T06:46:34;4.03;;;2.10;;
11298;SDS011;5705;49.006;12.100;2022-07-29T06:49:02;2.00;;;1.70;;
11298;SDS011;5705;49.006;12.100;2022-07-29T06:51:31;2.93;;;2.10;;
11298;SDS011;5705;49.006;12.100;2022-07-29T06:53:58;3.40;;;2.00;;
11298;SDS011;5705;49.006;12.100;2022-07-29T06:56:28;3.80;;;2.10;;
11298;SDS011;5705;49.006;12.100;2022-07-29T06:59:03;2.97;;;2.30;;
11298;SDS011;5705;49.006;12.100;2022-07-29T07:01:33;2.37;;;1.80;;
11298;SDS011;5705;49.006;12.100;2022-07-29T07:04:00;2.63;;;1.83;;
11298;SDS011;5705;49.006;12.100;2022-07-29T07:06:29;1.90;;;1.80;;
11298;SDS011;5705;49.006;12.100;2022-07-29T07:08:56;2.90;;;2.23;;
11298;SDS011;5705;49.006;12.100;2022-07-29T07:11:24;2.10;;;2.00;;
11298;SDS011;5705;49.006;12.100;2022-07-29T07:13:52;1.87;;;1.77;;
11298;SDS011;5705;49.006;12.100;2022-07-29T07:16:25;1.97;;;1.87;;
11298;SDS011;5705;49.006;12.100;2022-07-29T07:18:55;4.40;;;2.77;;
11298;SDS011;5705;49.006;12.100;2022-07-29T07:21:22;2.10;;;1.90;;
11298;SDS011;5705;49.006;12.100;2022-07-29T07:23:50;4.40;;;2.50;;
11298;SDS011;5705;49.006;12.100;2022-07-29T07:26:18;2.33;;;1.93;;
11298;SDS011;5705;49.006;12.100;2022-07-29T07:28:46;2.90;;;2.30;;
11298;SDS011;5705;49.006;12.100;2022-07-29T07:31:13;2.60;;;2.13;;
11298;SDS011;5705;49.006;12.100;2022-07-29T07:33:41;2.57;;;2.10;;
11298;SDS011;5705;49.006;12.100;2022-07-29T07:36:10;2.63;;;2.27;;
11298;SDS011;5705;49.006;12.100;2022-07-29T07:38:38;2.00;;;1.90;;
11298;SDS011;5705;49.006;12.100;2022-07-29T07:41:06;3.47;;;2.23;;
11298;SDS011;5705;49.006;12.100;2022-07-29T07:43:33;2.27;;;2.00;;
11298;SDS011;5705;49.006;12.100;2022-07-29T07:46:01;2.30;;;1.90;;
11298;SDS011;5705;49.006;12.100;2022-07-29T07:48:29;2.23;;;2.13;;
11298;SDS011;5705;49.006;12.100;2022-07-29T07:50:56;4.07;;;2.00;;
11298;SDS011;5705;49.006;12.100;2022-07-29T07:53:25;5.47;;;2.50;;
11298;SDS011;5705;49.006;12.100;2022-07-29T07:55:57;4.43;;;2.75;;
11298;SDS011;5705;49.006;12.100;2022-07-29T07:58:40;3.07;;;2.33;;
11298;SDS011;5705;49.006;12.100;2022-07-29T08:01:08;4.80;;;2.43;;
11298;SDS011;5705;49.006;12.100;2022-07-29T08:03:36;2.88;;;2.35;;
11298;SDS011;5705;49.006;12.100;2022-07-29T08:06:05;2.42;;;2.22;;
11298;SDS011;5705;49.006;12.100;2022-07-29T08:08:34;3.15;;;2.50;;
11298;SDS011;5705;49.006;12.100;2022-07-29T08:11:02;3.55;;;2.60;;
11298;SDS011;5705;49.006;12.100;2022-07-29T08:13:35;2.38;;;2.17;;
11298;SDS011;5705;49.006;12.100;2022-07-29T08:16:04;2.33;;;1.70;;
11298;SDS011;5705;49.006;12.100;2022-07-29T08:18:39;2.97;;;2.22;;
11298;SDS011;5705;49.006;12.100;2022-07-29T08:21:07;5.07;;;2.33;;
11298;SDS011;5705;49.006;12.100;2022-07-29T08:23:36;2.30;;;2.00;;
11298;SDS011;5705;49.006;12.100;2022-07-29T08:26:15;3.35;;;2.13;;
11298;SDS011;5705;49.006;12.100;2022-07-29T08:28:44;3.63;;;2.30;;
11298;SDS011;5705;49.006;12.100;2022-07-29T08:31:12;2.75;;;2.45;;
11298;SDS011;5705;49.006;12.100;2022-07-29T08:33:40;3.28;;;2.25;;
11298;SDS011;5705;49.006;12.100;2022-07-29T08:36:08;3.45;;;2.20;;
11298;SDS011;5705;49.006;12.100;2022-07-29T08:38:37;2.25;;;2.08;;
11298;SDS011;5705;49.006;12.100;2022-07-29T08:41:05;3.40;;;2.25;;
11298;SDS011;5705;49.006;12.100;2022-07-29T08:43:33;4.25;;;2.60;;
11298;SDS011;5705;49.006;12.100;2022-07-29T08:46:03;3.17;;;2.85;;
11298;SDS011;5705;49.006;12.100;2022-07-29T08:48:31;2.30;;;2.15;;
11298;SDS011;5705;49.006;12.100;2022-07-29T08:50:59;2.45;;;2.28;;
11298;SDS011;5705;49.006;12.100;2022-07-29T08:53:29;5.13;;;2.40;;
11298;SDS011;5705;49.006;12.100;2022-07-29T08:55:58;2.42;;;2.13;;
11298;SDS011;5705;49.006;12.100;2022-07-29T08:58:27;4.18;;;2.47;;
11298;SDS011;5705;49.006;12.100;2022-07-29T09:01:02;2.90;;;2.17;;
11298;SDS011;5705;49.006;12.100;2022-07-29T09:03:33;2.65;;;2.45;;
11298;SDS011;5705;49.006;12.100;2022-07-29T09:06:03;2.92;;;2.60;;
11298;SDS011;5705;49.006;12.100;2022-07-29T09:08:31;2.92;;;2.45;;
11298;SDS011;5705;49.006;12.100;2022-07-29T09:11:01;3.15;;;2.15;;
11298;SDS011;5705;49.006;12.100;2022-07-29T09:13:30;4.10;;;2.42;;
11298;SDS011;5705;49.006;12.100;2022-07-29T09:15:58;3.97;;;2.55;;
11298;SDS011;5705;49.006;12.100;2022-07-29T09:18:35;3.05;;;2.50;;
11298;SDS011;5705;49.006;12.100;2022-07-29T09:21:05;2.20;;;2.10;;
11298;SDS011;5705;49.006;12.100;2022-07-29T09:24:05;6.10;;;3.13;;
11298;SDS011;5705;49.006;12.100;2022-07-29T09:26:35;2.60;;;2.40;;
11298;SDS011;5705;49.006;12.100;2022-07-29T09:29:11;4.25;;;2.17;;
11298;SDS011;5705;49.006;12.100;2022-07-29T09:31:40;2.60;;;2.40;;
11298;SDS011;5705;49.006;12.100;2022-07-29T09:34:09;3.72;;;2.60;;
11298;SDS011;5705;49.006;12.100;2022-07-29T09:36:40;2.55;;;2.10;;
11298;SDS011;5705;49.006;12.100;2022-07-29T09:39:09;2.53;;;2.33;;
11298;SDS011;5705;49.006;12.100;2022-07-29T09:41:48;2.35;;;2.25;;
11298;SDS011;5705;49.006;12.100;2022-07-29T09:44:19;3.63;;;2.50;;
11298;SDS011;5705;49.006;12.100;2022-07-29T09:46:54;3.15;;;2.35;;
11298;SDS011;5705;49.006;12.100;2022-07-29T09:49:23;2.95;;;2.60;;
11298;SDS011;5705;49.006;12.100;2022-07-29T09:52:03;2.35;;;2.15;;
11298;SDS011;5705;49.006;12.100;2022-07-29T09:54:32;2.35;;;1.90;;
11298;SDS011;5705;49.006;12.100;2022-07-29T09:57:04;1.90;;;1.80;;
11298;SDS011;5705;49.006;12.100;2022-07-29T09:59:33;3.78;;;2.00;;
11298;SDS011;5705;49.006;12.100;2022-07-29T10:02:01;3.10;;;1.75;;
11298;SDS011;5705;49.006;12.100;2022-07-29T10:04:38;2.13;;;1.92;;
11298;SDS011;5705;49.006;12.100;2022-07-29T10:07:06;3.95;;;2.28;;
11298;SDS011;5705;49.006;12.100;2022-07-29T10:09:35;2.80;;;1.98;;
11298;SDS011;5705;49.006;12.100;2022-07-29T10:12:08;3.45;;;2.13;;
11298;SDS011;5705;49.006;12.100;2022-07-29T10:14:37;2.20;;;2.00;;
11298;SDS011;5705;49.006;12.100;2022-07-29T10:17:06;2.03;;;1.92;;
11298;SDS011;5705;49.006;12.100;2022-07-29T10:19:35;1.95;;;1.50;;
11298;SDS011;5705;49.006;12.100;2022-07-29T10:22:05;1.45;;;1.08;;
11298;SDS011;5705;49.006;12.100;2022-07-29T10:24:33;1.73;;;1.60;;
11298;SDS011;5705;49.006;12.100;2022-07-29T10:27:02;2.05;;;1.52;;
11298;SDS011;5705;49.006;12.100;2022-07-29T10:29:32;1.77;;;1.60;;
11298;SDS011;5705;49.006;12.100;2022-07-29T10:32:06;1.80;;;1.70;;
11298;SDS011;5705;49.006;12.100;2022-07-29T10:34:44;1.63;;;1.40;;
11298;SDS011;5705;49.006;12.100;2022-07-29T10:37:22;2.15;;;1.83;;
11298;SDS011;5705;49.006;12.100;2022-07-29T10:40:03;1.77;;;1.67;;
11298;SDS011;5705;49.006;12.100;2022-07-29T10:42:50;1.50;;;1.40;;
11298;SDS011;5705;49.006;12.100;2022-07-29T10:45:21;1.45;;;1.35;;
11298;SDS011;5705;49.006;12.100;2022-07-29T10:47:59;1.20;;;1.13;;
11298;SDS011;5705;49.006;12.100;2022-07-29T10:56:22;1.77;;;1.50;;
11298;SDS011;5705;49.006;12.100;2022-07-29T11:01:59;1.60;;;1.10;;
11298;SDS011;5705;49.006;12.100;2022-07-29T11:04:58;2.05;;;1.50;;
11298;SDS011;5705;49.006;12.100;2022-07-29T11:07:27;2.15;;;1.67;;
11298;SDS011;5705;49.006;12.100;2022-07-29T11:10:21;1.52;;;1.40;;
11298;SDS011;5705;49.006;12.100;2022-07-29T11:12:56;1.40;;;1.38;;
11298;SDS011;5705;49.006;12.100;2022-07-29T11:15:24;1.40;;;1.30;;
11298;SDS011;5705;49.006;12.100;2022-07-29T11:18:05;1.70;;;1.60;;
11298;SDS011;5705;49.006;12.100;2022-07-29T11:20:41;1.33;;;1.30;;
11298;SDS011;5705;49.006;12.100;2022-07-29T11:23:21;1.85;;;1.20;;
11298;SDS011;5705;49.006;12.100;2022-07-29T11:28:55;1.30;;;1.30;;
11298;SDS011;5705;49.006;12.100;2022-07-29T11:31:33;1.55;;;1.20;;
11298;SDS011;5705;49.006;12.100;2022-07-29T11:34:21;1.40;;;1.30;;
11298;SDS011;5705;49.006;12.100;2022-07-29T11:40:12;1.15;;;1.05;;
11298;SDS011;5705;49.006;12.100;2022-07-29T11:42:45;1.25;;;1.25;;
11298;SDS011;5705;49.006;12.100;2022-07-29T11:45:18;2.03;;;1.38;;
11298;SDS011;5705;49.006;12.100;2022-07-29T11:48:14;1.17;;;1.17;;
11298;SDS011;5705;49.006;12.100;2022-07-29T11:50:58;1.08;;;1.08;;
11298;SDS011;5705;49.006;12.100;2022-07-29T11:53:28;1.67;;;1.33;;
11298;SDS011;5705;49.006;12.100;2022-07-29T11:55:58;1.50;;;1.40;;
11298;SDS011;5705;49.006;12.100;2022-07-29T11:58:28;1.27;;;1.27;;
11298;SDS011;5705;49.006;12.100;2022-07-29T12:00:55;1.60;;;1.50;;
11298;SDS011;5705;49.006;12.100;2022-07-29T12:03:30;1.15;;;1.15;;
11298;SDS011;5705;49.006;12.100;2022-07-29T12:06:02;1.33;;;1.05;;
11298;SDS011;5705;49.006;12.100;2022-07-29T12:08:38;2.90;;;1.30;;
11298;SDS011;5705;49.006;12.100;2022-07-29T12:11:14;1.27;;;1.27;;
11298;SDS011;5705;49.006;12.100;2022-07-29T12:13:47;1.50;;;1.20;;
11298;SDS011;5705;49.006;12.100;2022-07-29T12:16:15;1.30;;;1.13;;
11298;SDS011;5705;49.006;12.100;2022-07-29T12:18:55;1.08;;;1.08;;
11298;SDS011;5705;49.006;12.100;2022-07-29T12:21:25;1.38;;;1.20;;
11298;SDS011;5705;49.006;12.100;2022-07-29T12:23:54;1.75;;;1.40;;
11298;SDS011;5705;49.006;12.100;2022-07-29T12:26:30;1.27;;;1.27;;
11298;SDS011;5705;49.006;12.100;2022-07-29T12:28:59;1.40;;;1.40;;
11298;SDS011;5705;49.006;12.100;2022-07-29T12:31:28;2.13;;;1.40;;
11298;SDS011;5705;49.006;12.100;2022-07-29T12:34:10;3.92;;;1.30;;
11298;SDS011;5705;49.006;12.100;2022-07-29T12:36:39;2.95;;;1.17;;
11298;SDS011;5705;49.006;12.100;2022-07-29T12:39:08;1.20;;;1.20;;
11298;SDS011;5705;49.006;12.100;2022-07-29T12:41:36;1.23;;;1.20;;
11298;SDS011;5705;49.006;12.100;2022-07-29T12:44:04;2.75;;;1.40;;
11298;SDS011;5705;49.006;12.100;2022-07-29T12:46:32;1.58;;;1.58;;
11298;SDS011;5705;49.006;12.100;2022-07-29T12:49:00;1.85;;;1.75;;
11298;SDS011;5705;49.006;12.100;2022-07-29T12:51:30;2.03;;;1.92;;
11298;SDS011;5705;49.006;12.100;2022-07-29T12:54:03;1.85;;;1.75;;
11298;SDS011;5705;49.006;12.100;2022-07-29T12:56:32;1.58;;;1.45;;
11298;SDS011;5705;49.006;12.100;2022-07-29T12:59:14;1.35;;;1.20;;
11298;SDS011;5705;49.006;12.100;2022-07-29T13:01:44;1.45;;;1.38;;
11298;SDS011;5705;49.006;12.100;2022-07-29T13:04:23;2.00;;;1.45;;
11298;SDS011;5705;49.006;12.100;2022-07-29T13:06:57;1.52;;;1.23;;
11298;SDS011;5705;49.006;12.100;2022-07-29T13:09:35;2.70;;;1.23;;
11298;SDS011;5705;49.006;12.100;2022-07-29T13:12:05;1.85;;;1.42;;
11298;SDS011;5705;49.006;12.100;2022-07-29T13:14:34;3.42;;;1.90;;
11298;SDS011;5705;49.006;12.100;2022-07-29T13:17:04;2.25;;;2.05;;
11298;SDS011;5705;49.006;12.100;2022-07-29T13:19:35;1.42;;;1.17;;
11298;SDS011;5705;49.006;12.100;2022-07-29T13:22:03;1.02;;;1.02;;
11298;SDS011;5705;49.006;12.100;2022-07-29T13:24:33;1.38;;;1.27;;
11298;SDS011;5705;49.006;12.100;2022-07-29T13:27:00;1.42;;;1.33;;
11298;SDS011;5705;49.006;12.100;2022-07-29T13:29:31;1.55;;;1.20;;
11298;SDS011;5705;49.006;12.100;2022-07-29T13:31:59;3.22;;;1.10;;
11298;SDS011;5705;49.006;12.100;2022-07-29T13:34:27;0.80;;;0.80;;
11298;SDS011;5705;49.006;12.100;2022-07-29T13:36:54;1.05;;;1.05;;
11298;SDS011;5705;49.006;12.100;2022-07-29T13:39:22;1.00;;;0.90;;
11298;SDS011;5705;49.006;12.100;2022-07-29T13:41:51;1.58;;;1.08;;
11298;SDS011;5705;49.006;12.100;2022-07-29T13:44:21;1.13;;;1.10;;
11298;SDS011;5705;49.006;12.100;2022-07-29T13:46:49;2.38;;;1.10;;
11298;SDS011;5705;49.006;12.100;2022-07-29T13:49:16;0.95;;;0.95;;
11298;SDS011;5705;49.006;12.100;2022-07-29T13:51:44;1.17;;;1.08;;
11298;SDS011;5705;49.006;12.100;2022-07-29T13:54:12;1.45;;;1.02;;
11298;SDS011;5705;49.006;12.100;2022-07-29T13:56:40;1.08;;;1.00;;
11298;SDS011;5705;49.006;12.100;2022-07-29T13:59:09;1.30;;;1.20;;
11298;SDS011;5705;49.006;12.100;2022-07-29T14:01:37;0.98;;;0.98;;
11298;SDS011;5705;49.006;12.100;2022-07-29T14:04:07;1.30;;;1.02;;
11298;SDS011;5705;49.006;12.100;2022-07-29T14:06:37;2.25;;;1.20;;
11298;SDS011;5705;49.006;12.100;2022-07-29T14:09:05;0.95;;;0.95;;
11298;SDS011;5705;49.006;12.100;2022-07-29T14:11:34;2.33;;;0.88;;
11298;SDS011;5705;49.006;12.100;2022-07-29T14:14:04;0.90;;;0.90;;
11298;SDS011;5705;49.006;12.100;2022-07-29T14:16:33;1.75;;;1.00;;
11298;SDS011;5705;49.006;12.100;2022-07-29T14:19:07;0.90;;;0.80;;
11298;SDS011;5705;49.006;12.100;2022-07-29T14:21:35;1.73;;;1.33;;
11298;SDS011;5705;49.006;12.100;2022-07-29T14:24:03;0.90;;;0.90;;
11298;SDS011;5705;49.006;12.100;2022-07-29T14:26:46;1.45;;;1.35;;
11298;SDS011;5705;49.006;12.100;2022-07-29T14:29:14;2.13;;;1.20;;
11298;SDS011;5705;49.006;12.100;2022-07-29T14:31:43;2.38;;;1.65;;
11298;SDS011;5705;49.006;12.100;2022-07-29T14:34:11;2.78;;;1.38;;
11298;SDS011;5705;49.006;12.100;2022-07-29T14:36:39;1.52;;;1.42;;
11298;SDS011;5705;49.006;12.100;2022-07-29T14:39:07;1.20;;;1.20;;
11298;SDS011;5705;49.006;12.100;2022-07-29T14:41:34;2.33;;;1.60;;
11298;SDS011;5705;49.006;12.100;2022-07-29T14:44:02;5.25;;;2.30;;
11298;SDS011;5705;49.006;12.100;2022-07-29T14:46:30;1.77;;;0.90;;
11298;SDS011;5705;49.006;12.100;2022-07-29T14:48:59;2.80;;;0.90;;
11298;SDS011;5705;49.006;12.100;2022-07-29T14:51:27;1.30;;;1.00;;
11298;SDS011;5705;49.006;12.100;2022-07-29T14:53:57;1.77;;;1.02;;
11298;SDS011;5705;49.006;12.100;2022-07-29T14:56:25;3.33;;;1.10;;
11298;SDS011;5705;49.006;12.100;2022-07-29T14:59:12;1.98;;;1.80;;
11298;SDS011;5705;49.006;12.100;2022-07-29T15:01:39;0.85;;;0.80;;
11298;SDS011;5705;49.006;12.100;2022-07-29T15:04:08;0.90;;;0.90;;
11298;SDS011;5705;49.006;12.100;2022-07-29T15:06:36;1.15;;;0.82;;
11298;SDS011;5705;49.006;12.100;2022-07-29T15:09:04;4.22;;;1.00;;
11298;SDS011;5705;49.006;12.100;2022-07-29T15:11:32;1.98;;;0.95;;
11298;SDS011;5705;49.006;12.100;2022-07-29T15:14:04;2.15;;;0.93;;
11298;SDS011;5705;49.006;12.100;2022-07-29T15:16:31;0.63;;;0.63;;
11298;SDS011;5705;49.006;12.100;2022-07-29T15:19:00;1.63;;;0.77;;
11298;SDS011;5705;49.006;12.100;2022-07-29T15:21:29;1.25;;;1.15;;
11298;SDS011;5705;49.006;12.100;2022-07-29T15:23:57;0.93;;;0.90;;